LFQB 171030Z AUTO 23016KT CAVOK 09/07 Q1019

ElémentsDécodage
LFQB Station météo située sur l'aérodrome de TROYES Barberey
171030Z émis le 17 du mois à 10h30 UTC
AUTO Bulletin édité par un automate
23016KT vent du 230°, 16 noeuds
CAVOK Ceiling And Visibility OK
- Visibilité de 10 Km ou plus
- Pas de nuage au-dessous de 1500m ou au-dessous de l'altitude minimale du secteur la plus élevée (si>1500m) et absence de CB
- pas de temps présent significatif
09/07 température 09°C, point de rosée 07°C
 soit une humidité relative de 87%
Q1019 la pression au niveau de la mer (QNH) est de 1019 hPa